sensor_id;sensor_type;location;lat;lon;timestamp;pressure;altitude;pressure_sealevel;temperature;humidity
57894;BME280;43710;47.460;19.034;2023-10-19T04:06:14;99809.03;;;11.13;100.00
57894;BME280;43710;47.460;19.034;2023-10-19T04:09:17;99809.03;;;11.13;100.00
57894;BME280;43710;47.460;19.034;2023-10-19T04:12:20;99811.84;;;10.75;100.00
57894;BME280;43710;47.460;19.034;2023-10-19T04:15:24;99803.75;;;10.61;100.00
57894;BME280;43710;47.460;19.034;2023-10-19T04:18:28;99795.50;;;11.04;100.00
57894;BME280;43710;47.460;19.034;2023-10-19T04:21:31;99793.53;;;11.10;100.00
57894;BME280;43710;47.460;19.034;2023-10-19T04:24:33;99789.03;;;11.05;100.00
57894;BME280;43710;47.460;19.034;2023-10-19T04:27:36;99783.12;;;10.75;99.88
57894;BME280;43710;47.460;19.034;2023-10-19T04:30:38;99770.75;;;10.93;100.00
57894;BME280;43710;47.460;19.034;2023-10-19T04:33:41;99764.50;;;10.84;100.00
57894;BME280;43710;47.460;19.034;2023-10-19T04:36:48;99767.84;;;10.76;99.11
57894;BME280;43710;47.460;19.034;2023-10-19T04:39:51;99764.22;;;10.99;100.00
57894;BME280;43710;47.460;19.034;2023-10-19T04:42:54;99753.69;;;11.03;100.00
57894;BME280;43710;47.460;19.034;2023-10-19T04:45:57;99757.81;;;11.09;100.00
57894;BME280;43710;47.460;19.034;2023-10-19T04:49:00;99755.56;;;11.16;100.00
57894;BME280;43710;47.460;19.034;2023-10-19T04:52:03;99751.38;;;11.10;100.00
57894;BME280;43710;47.460;19.034;2023-10-19T04:55:06;99750.41;;;11.06;100.00
57894;BME280;43710;47.460;19.034;2023-10-19T04:58:08;99748.00;;;11.04;100.00
57894;BME280;43710;47.460;19.034;2023-10-19T05:01:13;99739.72;;;11.28;100.00
57894;BME280;43710;47.460;19.034;2023-10-19T05:04:17;99743.63;;;11.22;100.00
57894;BME280;43710;47.460;19.034;2023-10-19T05:07:19;99761.22;;;11.01;100.00
57894;BME280;43710;47.460;19.034;2023-10-19T05:10:22;99743.53;;;11.14;100.00
57894;BME280;43710;47.460;19.034;2023-10-19T05:13:26;99745.31;;;11.18;100.00
57894;BME280;43710;47.460;19.034;2023-10-19T05:16:29;99732.00;;;11.27;100.00
57894;BME280;43710;47.460;19.034;2023-10-19T05:19:32;99739.16;;;11.18;98.03
57894;BME280;43710;47.460;19.034;2023-10-19T05:22:38;99737.47;;;11.36;100.00
57894;BME280;43710;47.460;19.034;2023-10-19T05:25:41;99741.31;;;11.43;100.00
57894;BME280;43710;47.460;19.034;2023-10-19T05:28:43;99744.59;;;11.40;100.00
57894;BME280;43710;47.460;19.034;2023-10-19T05:31:46;99748.34;;;11.53;100.00
57894;BME280;43710;47.460;19.034;2023-10-19T05:34:49;99750.88;;;11.36;98.75
57894;BME280;43710;47.460;19.034;2023-10-19T05:37:51;99747.31;;;11.13;92.88
57894;BME280;43710;47.460;19.034;2023-10-19T05:40:54;99743.81;;;11.12;100.00
57894;BME280;43710;47.460;19.034;2023-10-19T05:43:59;99741.13;;;11.12;97.80
57894;BME280;43710;47.460;19.034;2023-10-19T05:47:02;99753.28;;;11.23;100.00
57894;BME280;43710;47.460;19.034;2023-10-19T05:50:04;99737.66;;;11.25;97.75
57894;BME280;43710;47.460;19.034;2023-10-19T05:53:07;99744.69;;;11.49;100.00
57894;BME280;43710;47.460;19.034;2023-10-19T05:56:11;99740.63;;;11.38;100.00
57894;BME280;43710;47.460;19.034;2023-10-19T05:59:13;99734.16;;;11.39;100.00
57894;BME280;43710;47.460;19.034;2023-10-19T06:02:16;99727.72;;;11.40;100.00
57894;BME280;43710;47.460;19.034;2023-10-19T06:05:24;99730.00;;;11.33;100.00
57894;BME280;43710;47.460;19.034;2023-10-19T06:08:26;99744.31;;;11.28;97.81
57894;BME280;43710;47.460;19.034;2023-10-19T06:11:30;99737.78;;;11.20;98.51
57894;BME280;43710;47.460;19.034;2023-10-19T06:14:35;99736.97;;;11.34;100.00
57894;BME280;43710;47.460;19.034;2023-10-19T06:17:40;99734.19;;;11.25;100.00
57894;BME280;43710;47.460;19.034;2023-10-19T06:20:44;99735.78;;;11.12;100.00
57894;BME280;43710;47.460;19.034;2023-10-19T06:23:47;99732.28;;;11.25;100.00
57894;BME280;43710;47.460;19.034;2023-10-19T06:26:49;99728.19;;;11.42;100.00
57894;BME280;43710;47.460;19.034;2023-10-19T06:29:52;99729.00;;;11.42;100.00
57894;BME280;43710;47.460;19.034;2023-10-19T06:32:57;99717.44;;;11.42;100.00
57894;BME280;43710;47.460;19.034;2023-10-19T06:36:03;99716.63;;;11.55;100.00
57894;BME280;43710;47.460;19.034;2023-10-19T06:39:06;99709.53;;;11.37;100.00
57894;BME280;43710;47.460;19.034;2023-10-19T06:42:08;99709.81;;;11.49;100.00
57894;BME280;43710;47.460;19.034;2023-10-19T06:45:17;99696.97;;;11.46;100.00
57894;BME280;43710;47.460;19.034;2023-10-19T06:48:21;99698.50;;;11.24;98.61
57894;BME280;43710;47.460;19.034;2023-10-19T06:51:24;99712.34;;;11.04;95.97
57894;BME280;43710;47.460;19.034;2023-10-19T06:54:28;99716.41;;;11.01;100.00
57894;BME280;43710;47.460;19.034;2023-10-19T06:57:31;99707.97;;;11.58;100.00
57894;BME280;43710;47.460;19.034;2023-10-19T07:00:35;99717.53;;;11.50;96.24
57894;BME280;43710;47.460;19.034;2023-10-19T07:03:48;99705.88;;;11.55;100.00
57894;BME280;43710;47.460;19.034;2023-10-19T07:06:51;99697.03;;;11.55;100.00
57894;BME280;43710;47.460;19.034;2023-10-19T07:09:53;99696.97;;;11.82;100.00
57894;BME280;43710;47.460;19.034;2023-10-19T07:12:56;99690.09;;;11.90;100.00
57894;BME280;43710;47.460;19.034;2023-10-19T07:16:00;99685.09;;;11.61;97.05
57894;BME280;43710;47.460;19.034;2023-10-19T07:19:02;99686.34;;;11.41;94.09
57894;BME280;43710;47.460;19.034;2023-10-19T07:22:06;99687.28;;;11.59;100.00
57894;BME280;43710;47.460;19.034;2023-10-19T07:25:12;99682.00;;;11.67;100.00
57894;BME280;43710;47.460;19.034;2023-10-19T07:28:15;99683.03;;;11.58;93.98
57894;BME280;43710;47.460;19.034;2023-10-19T07:31:18;99674.91;;;11.35;92.79
57894;BME280;43710;47.460;19.034;2023-10-19T07:34:20;99679.28;;;11.45;100.00
57894;BME280;43710;47.460;19.034;2023-10-19T07:37:28;99685.44;;;11.45;98.01
57894;BME280;43710;47.460;19.034;2023-10-19T07:40:30;99670.66;;;11.34;100.00
57894;BME280;43710;47.460;19.034;2023-10-19T07:43:34;99667.78;;;11.31;100.00
57894;BME280;43710;47.460;19.034;2023-10-19T07:46:36;99664.88;;;11.41;92.81
57894;BME280;43710;47.460;19.034;2023-10-19T07:49:39;99653.94;;;11.73;100.00
57894;BME280;43710;47.460;19.034;2023-10-19T07:52:48;99655.16;;;11.67;100.00
57894;BME280;43710;47.460;19.034;2023-10-19T07:55:51;99652.50;;;11.90;100.00
57894;BME280;43710;47.460;19.034;2023-10-19T07:58:54;99646.22;;;11.81;93.66
57894;BME280;43710;47.460;19.034;2023-10-19T08:01:58;99633.59;;;11.81;100.00
57894;BME280;43710;47.460;19.034;2023-10-19T08:05:04;99635.09;;;12.18;100.00
57894;BME280;43710;47.460;19.034;2023-10-19T08:08:09;99636.72;;;11.97;100.00
57894;BME280;43710;47.460;19.034;2023-10-19T08:11:13;99632.56;;;12.13;100.00
57894;BME280;43710;47.460;19.034;2023-10-19T08:14:15;99628.50;;;11.93;99.97
57894;BME280;43710;47.460;19.034;2023-10-19T08:17:18;99617.97;;;11.83;96.55
57894;BME280;43710;47.460;19.034;2023-10-19T08:20:20;99618.84;;;11.92;100.00
57894;BME280;43710;47.460;19.034;2023-10-19T08:23:28;99619.37;;;11.81;100.00
57894;BME280;43710;47.460;19.034;2023-10-19T08:26:31;99619.03;;;11.96;95.01
57894;BME280;43710;47.460;19.034;2023-10-19T08:29:33;99624.44;;;12.05;98.46
57894;BME280;43710;47.460;19.034;2023-10-19T08:32:37;99633.00;;;12.07;100.00
57894;BME280;43710;47.460;19.034;2023-10-19T08:35:39;99609.03;;;12.19;100.00
57894;BME280;43710;47.460;19.034;2023-10-19T08:38:42;99610.56;;;12.11;100.00
57894;BME280;43710;47.460;19.034;2023-10-19T08:41:45;99601.62;;;12.25;97.86
57894;BME280;43710;47.460;19.034;2023-10-19T08:44:53;99605.97;;;12.12;93.46
57894;BME280;43710;47.460;19.034;2023-10-19T08:48:00;99599.75;;;12.25;100.00
57894;BME280;43710;47.460;19.034;2023-10-19T08:51:09;99589.81;;;12.34;100.00
57894;BME280;43710;47.460;19.034;2023-10-19T08:54:14;99583.16;;;12.32;98.79
57894;BME280;43710;47.460;19.034;2023-10-19T08:57:17;99570.66;;;12.27;94.68
57894;BME280;43710;47.460;19.034;2023-10-19T09:00:21;99573.84;;;12.29;95.25
57894;BME280;43710;47.460;19.034;2023-10-19T09:03:27;99572.50;;;12.66;100.00
57894;BME280;43710;47.460;19.034;2023-10-19T09:06:34;99569.69;;;12.72;100.00
57894;BME280;43710;47.460;19.034;2023-10-19T09:09:45;99577.75;;;12.80;100.00
57894;BME280;43710;47.460;19.034;2023-10-19T09:16:04;99571.56;;;12.62;89.04
57894;BME280;43710;47.460;19.034;2023-10-19T09:19:07;99562.22;;;12.77;99.19
57894;BME280;43710;47.460;19.034;2023-10-19T09:22:10;99571.91;;;12.78;94.89
57894;BME280;43710;47.460;19.034;2023-10-19T09:25:21;99564.31;;;12.89;100.00
57894;BME280;43710;47.460;19.034;2023-10-19T09:28:25;99560.50;;;12.81;95.86
57894;BME280;43710;47.460;19.034;2023-10-19T09:31:27;99555.44;;;12.80;91.20
57894;BME280;43710;47.460;19.034;2023-10-19T09:34:30;99557.34;;;12.88;95.66
57894;BME280;43710;47.460;19.034;2023-10-19T09:37:36;99559.06;;;12.84;91.22
57894;BME280;43710;47.460;19.034;2023-10-19T09:40:39;99568.44;;;13.04;89.01
57894;BME280;43710;47.460;19.034;2023-10-19T09:43:45;99558.31;;;12.92;88.37
57894;BME280;43710;47.460;19.034;2023-10-19T09:46:48;99554.03;;;13.00;91.22
57894;BME280;43710;47.460;19.034;2023-10-19T09:49:52;99558.63;;;13.08;100.00
57894;BME280;43710;47.460;19.034;2023-10-19T09:52:56;99543.41;;;13.47;100.00
57894;BME280;43710;47.460;19.034;2023-10-19T09:56:01;99540.59;;;13.34;96.78
57894;BME280;43710;47.460;19.034;2023-10-19T09:59:28;99526.31;;;13.34;92.88
57894;BME280;43710;47.460;19.034;2023-10-19T10:02:31;99509.41;;;13.25;92.61
57894;BME280;43710;47.460;19.034;2023-10-19T10:08:46;99503.06;;;13.29;96.60
57894;BME280;43710;47.460;19.034;2023-10-19T10:11:52;99491.47;;;13.37;96.75
57894;BME280;43710;47.460;19.034;2023-10-19T10:15:02;99492.75;;;13.23;95.90
57894;BME280;43710;47.460;19.034;2023-10-19T10:18:12;99486.78;;;13.34;96.45
57894;BME280;43710;47.460;19.034;2023-10-19T10:21:23;99474.25;;;13.38;100.00
57894;BME280;43710;47.460;19.034;2023-10-19T10:24:28;99469.59;;;13.56;100.00
57894;BME280;43710;47.460;19.034;2023-10-19T10:27:32;99471.50;;;13.47;88.22
57894;BME280;43710;47.460;19.034;2023-10-19T10:30:36;99443.63;;;13.52;92.19
57894;BME280;43710;47.460;19.034;2023-10-19T10:33:43;99457.56;;;13.54;98.09
57894;BME280;43710;47.460;19.034;2023-10-19T10:36:58;99461.69;;;13.51;93.30
57894;BME280;43710;47.460;19.034;2023-10-19T10:40:04;99435.69;;;13.55;95.76
57894;BME280;43710;47.460;19.034;2023-10-19T10:43:08;99422.41;;;13.89;100.00
57894;BME280;43710;47.460;19.034;2023-10-19T10:46:10;99435.31;;;13.74;87.68
57894;BME280;43710;47.460;19.034;2023-10-19T10:49:15;99420.22;;;13.44;89.29
57894;BME280;43710;47.460;19.034;2023-10-19T10:55:31;99418.53;;;13.69;92.18
57894;BME280;43710;47.460;19.034;2023-10-19T10:58:34;99416.03;;;13.93;100.00
57894;BME280;43710;47.460;19.034;2023-10-19T11:01:37;99403.72;;;13.83;91.43
57894;BME280;43710;47.460;19.034;2023-10-19T11:04:44;99404.50;;;13.54;89.27
57894;BME280;43710;47.460;19.034;2023-10-19T11:08:09;99396.97;;;13.39;86.50
57894;BME280;43710;47.460;19.034;2023-10-19T11:11:15;99403.97;;;13.31;89.02
57894;BME280;43710;47.460;19.034;2023-10-19T11:14:18;99379.25;;;13.68;98.89
57894;BME280;43710;47.460;19.034;2023-10-19T11:17:20;99382.22;;;13.75;94.32
57894;BME280;43710;47.460;19.034;2023-10-19T11:20:30;99390.84;;;13.59;89.03
57894;BME280;43710;47.460;19.034;2023-10-19T11:23:48;99380.31;;;14.05;95.45
57894;BME280;43710;47.460;19.034;2023-10-19T11:26:51;99381.59;;;13.78;87.89
57894;BME280;43710;47.460;19.034;2023-10-19T11:29:57;99380.31;;;13.75;92.83
57894;BME280;43710;47.460;19.034;2023-10-19T11:33:01;99371.09;;;14.06;92.26
57894;BME280;43710;47.460;19.034;2023-10-19T11:36:04;99367.09;;;13.91;86.35
57894;BME280;43710;47.460;19.034;2023-10-19T11:39:06;99368.63;;;13.71;88.02
57894;BME280;43710;47.460;19.034;2023-10-19T11:42:14;99357.22;;;13.74;89.53
57894;BME280;43710;47.460;19.034;2023-10-19T11:45:17;99339.56;;;13.56;87.88
57894;BME280;43710;47.460;19.034;2023-10-19T11:48:20;99353.94;;;13.60;89.91
57894;BME280;43710;47.460;19.034;2023-10-19T11:51:22;99351.34;;;13.72;92.15
57894;BME280;43710;47.460;19.034;2023-10-19T11:54:25;99345.66;;;13.95;100.00
57894;BME280;43710;47.460;19.034;2023-10-19T11:57:28;99330.28;;;14.16;93.13
57894;BME280;43710;47.460;19.034;2023-10-19T12:00:31;99337.75;;;13.90;85.57
57894;BME280;43710;47.460;19.034;2023-10-19T12:03:36;99353.19;;;13.80;87.43
57894;BME280;43710;47.460;19.034;2023-10-19T12:06:39;99351.56;;;14.09;100.00
57894;BME280;43710;47.460;19.034;2023-10-19T12:09:42;99324.28;;;13.90;89.06
57894;BME280;43710;47.460;19.034;2023-10-19T12:12:44;99321.19;;;14.00;96.35
57894;BME280;43710;47.460;19.034;2023-10-19T12:16:02;99328.50;;;13.99;91.71
57894;BME280;43710;47.460;19.034;2023-10-19T12:19:07;99308.28;;;14.14;94.47
57894;BME280;43710;47.460;19.034;2023-10-19T12:22:09;99309.19;;;14.18;86.38
57894;BME280;43710;47.460;19.034;2023-10-19T12:25:13;99295.16;;;14.25;89.81
57894;BME280;43710;47.460;19.034;2023-10-19T12:28:17;99289.38;;;14.35;88.47
57894;BME280;43710;47.460;19.034;2023-10-19T12:31:19;99285.22;;;14.38;85.59
57894;BME280;43710;47.460;19.034;2023-10-19T12:34:24;99293.22;;;14.46;94.36
57894;BME280;43710;47.460;19.034;2023-10-19T12:37:32;99288.78;;;14.50;90.14
57894;BME280;43710;47.460;19.034;2023-10-19T12:40:35;99280.16;;;14.69;94.30
57894;BME280;43710;47.460;19.034;2023-10-19T12:43:37;99278.63;;;14.47;94.50
57894;BME280;43710;47.460;19.034;2023-10-19T12:46:40;99274.44;;;14.71;91.20
57894;BME280;43710;47.460;19.034;2023-10-19T12:49:43;99264.09;;;14.61;86.82
57894;BME280;43710;47.460;19.034;2023-10-19T12:52:51;99272.41;;;14.34;84.73
57894;BME280;43710;47.460;19.034;2023-10-19T12:55:54;99258.78;;;13.98;88.20
57894;BME280;43710;47.460;19.034;2023-10-19T12:58:56;99274.44;;;14.04;87.15
57894;BME280;43710;47.460;19.034;2023-10-19T13:01:59;99256.09;;;13.98;87.79
57894;BME280;43710;47.460;19.034;2023-10-19T13:05:02;99256.94;;;14.10;97.41
57894;BME280;43710;47.460;19.034;2023-10-19T13:08:13;99251.19;;;14.12;85.84
57894;BME280;43710;47.460;19.034;2023-10-19T13:11:16;99240.84;;;14.02;87.94
57894;BME280;43710;47.460;19.034;2023-10-19T13:14:20;99238.59;;;14.04;86.96
57894;BME280;43710;47.460;19.034;2023-10-19T13:17:23;99242.03;;;14.25;99.62
57894;BME280;43710;47.460;19.034;2023-10-19T13:20:27;99234.69;;;14.47;96.96
57894;BME280;43710;47.460;19.034;2023-10-19T13:23:35;99224.13;;;14.42;88.84
57894;BME280;43710;47.460;19.034;2023-10-19T13:26:38;99225.31;;;14.32;85.63
57894;BME280;43710;47.460;19.034;2023-10-19T13:29:42;99226.91;;;14.33;86.78
57894;BME280;43710;47.460;19.034;2023-10-19T13:32:44;99226.53;;;14.55;93.83
57894;BME280;43710;47.460;19.034;2023-10-19T13:35:48;99223.53;;;14.36;87.47
57894;BME280;43710;47.460;19.034;2023-10-19T13:38:50;99228.50;;;14.34;89.72
57894;BME280;43710;47.460;19.034;2023-10-19T13:41:53;99220.28;;;14.43;90.50
57894;BME280;43710;47.460;19.034;2023-10-19T13:44:55;99212.03;;;14.27;88.80
57894;BME280;43710;47.460;19.034;2023-10-19T13:47:59;99202.75;;;14.24;87.84
57894;BME280;43710;47.460;19.034;2023-10-19T13:51:02;99207.03;;;14.50;100.00
57894;BME280;43710;47.460;19.034;2023-10-19T13:54:18;99200.87;;;14.37;87.68
57894;BME280;43710;47.460;19.034;2023-10-19T13:57:20;99202.50;;;14.29;88.90
57894;BME280;43710;47.460;19.034;2023-10-19T14:00:24;99204.47;;;14.41;94.04
57894;BME280;43710;47.460;19.034;2023-10-19T14:03:26;99185.19;;;14.51;94.53
57894;BME280;43710;47.460;19.034;2023-10-19T14:06:29;99199.06;;;14.41;89.88
57894;BME280;43710;47.460;19.034;2023-10-19T14:09:31;99188.84;;;14.47;94.68
57894;BME280;43710;47.460;19.034;2023-10-19T14:12:34;99189.38;;;14.28;89.40
57894;BME280;43710;47.460;19.034;2023-10-19T14:15:37;99182.75;;;14.25;90.61
57894;BME280;43710;47.460;19.034;2023-10-19T14:18:39;99183.75;;;14.21;89.07
57894;BME280;43710;47.460;19.034;2023-10-19T14:21:43;99189.03;;;14.17;89.30
57894;BME280;43710;47.460;19.034;2023-10-19T14:24:46;99189.03;;;14.17;89.84
57894;BME280;43710;47.460;19.034;2023-10-19T14:27:50;99171.44;;;14.44;99.17
57894;BME280;43710;47.460;19.034;2023-10-19T14:30:53;99177.37;;;14.50;95.44
57894;BME280;43710;47.460;19.034;2023-10-19T14:33:56;99164.81;;;14.42;87.83
57894;BME280;43710;47.460;19.034;2023-10-19T14:37:00;99165.25;;;14.31;88.60
57894;BME280;43710;47.460;19.034;2023-10-19T14:40:02;99171.13;;;14.13;87.47
57894;BME280;43710;47.460;19.034;2023-10-19T14:43:05;99168.44;;;14.13;96.01
57894;BME280;43710;47.460;19.034;2023-10-19T14:46:08;99168.66;;;14.07;89.59
57894;BME280;43710;47.460;19.034;2023-10-19T14:49:10;99166.34;;;14.18;92.55
57894;BME280;43710;47.460;19.034;2023-10-19T14:52:13;99159.62;;;14.24;91.97
57894;BME280;43710;47.460;19.034;2023-10-19T14:55:15;99156.44;;;14.22;92.96
57894;BME280;43710;47.460;19.034;2023-10-19T14:58:18;99163.16;;;14.16;92.00
57894;BME280;43710;47.460;19.034;2023-10-19T15:01:23;99162.28;;;14.12;93.34
57894;BME280;43710;47.460;19.034;2023-10-19T15:04:28;99151.59;;;14.16;100.00
57894;BME280;43710;47.460;19.034;2023-10-19T15:07:30;99144.53;;;14.23;93.94
57894;BME280;43710;47.460;19.034;2023-10-19T15:10:34;99147.03;;;14.28;99.44
57894;BME280;43710;47.460;19.034;2023-10-19T15:13:36;99141.97;;;14.27;94.38
57894;BME280;43710;47.460;19.034;2023-10-19T15:16:39;99135.66;;;14.10;94.19
57894;BME280;43710;47.460;19.034;2023-10-19T15:19:41;99133.97;;;14.06;92.37
57894;BME280;43710;47.460;19.034;2023-10-19T15:22:45;99134.31;;;14.04;100.00
